createdAt,value
2023-01-31T00:01:37.518Z,99200.72
2023-01-31T00:04:07.694Z,99201.66
2023-01-31T00:06:41.335Z,99188.81
2023-01-31T00:09:10.415Z,99185.88
2023-01-31T00:11:37.708Z,99179.94
2023-01-31T00:14:06.912Z,99191.31
2023-01-31T00:16:35.073Z,99189.63
2023-01-31T00:19:02.777Z,99190.50
2023-01-31T00:21:31.440Z,99189.00
2023-01-31T00:23:59.218Z,99178.00
2023-01-31T00:26:32.521Z,99198.19
2023-01-31T00:29:02.259Z,99194.09
2023-01-31T00:31:30.848Z,99184.31
2023-01-31T00:33:58.450Z,99185.44
2023-01-31T00:36:27.918Z,99174.81
2023-01-31T00:38:57.484Z,99184.47
2023-01-31T00:41:26.719Z,99172.19
2023-01-31T00:43:54.204Z,99185.50
2023-01-31T00:46:22.412Z,99181.13
2023-01-31T00:48:49.882Z,99182.94
2023-01-31T00:51:17.765Z,99181.75
2023-01-31T00:53:44.805Z,99177.38
2023-01-31T00:56:14.075Z,99166.75
2023-01-31T00:58:41.694Z,99184.38
2023-01-31T01:01:23.063Z,99179.25
2023-01-31T01:03:50.079Z,99184.44
2023-01-31T01:06:17.186Z,99194.75
2023-01-31T01:08:44.645Z,99198.94
2023-01-31T01:11:17.965Z,99191.28
2023-01-31T01:13:45.572Z,99197.63
2023-01-31T01:16:22.288Z,99190.13
2023-01-31T01:18:50.502Z,99181.75
2023-01-31T01:21:20.535Z,99200.19
2023-01-31T01:23:48.160Z,99193.44
2023-01-31T01:26:25.554Z,99197.16
2023-01-31T01:28:53.366Z,99198.19
2023-01-31T01:31:21.652Z,99199.00
2023-01-31T01:33:49.821Z,99205.81
2023-01-31T01:36:22.018Z,99204.13
2023-01-31T01:38:49.605Z,99203.31
2023-01-31T01:41:16.525Z,99204.13
2023-01-31T01:43:50.959Z,99213.38
2023-01-31T01:46:36.903Z,99201.47
2023-01-31T01:49:24.469Z,99207.75
2023-01-31T01:51:54.827Z,99206.13
2023-01-31T01:54:28.644Z,99204.13
2023-01-31T01:56:59.733Z,99207.63
2023-01-31T01:59:32.697Z,99210.44
2023-01-31T02:01:59.855Z,99203.66
2023-01-31T02:04:32.528Z,99199.88
2023-01-31T02:07:00.656Z,99196.56
2023-01-31T02:09:37.847Z,99191.56
2023-01-31T02:12:05.747Z,99185.38
2023-01-31T02:14:32.659Z,99186.44
2023-01-31T02:17:00.236Z,99188.16
2023-01-31T02:19:42.644Z,99198.31
2023-01-31T02:22:22.881Z,99198.31
2023-01-31T02:25:13.058Z,99200.75
2023-01-31T02:27:39.896Z,99200.97
2023-01-31T02:30:19.145Z,99194.59
2023-01-31T02:33:07.264Z,99202.28
2023-01-31T02:35:59.776Z,99204.03
2023-01-31T02:38:41.922Z,99212.75
2023-01-31T02:41:20.892Z,99216.13
2023-01-31T02:44:24.905Z,99215.53
2023-01-31T02:47:06.375Z,99215.66
2023-01-31T02:49:39.666Z,99216.50
2023-01-31T02:52:19.141Z,99216.78
2023-01-31T02:55:30.495Z,99220.97
2023-01-31T02:58:00.526Z,99225.34
2023-01-31T03:00:29.876Z,99216.38
2023-01-31T03:02:59.227Z,99228.78
2023-01-31T03:05:26.291Z,99227.84
2023-01-31T03:08:00.991Z,99225.47
2023-01-31T03:10:45.285Z,99222.03
2023-01-31T03:13:21.889Z,99227.34
2023-01-31T03:16:42.463Z,99228.97
2023-01-31T03:19:15.904Z,99226.59
2023-01-31T03:21:56.974Z,99223.09
2023-01-31T03:24:26.740Z,99228.16
2023-01-31T03:26:56.137Z,99217.91
2023-01-31T03:29:25.245Z,99216.16
2023-01-31T03:32:03.547Z,99214.53
2023-01-31T03:34:31.417Z,99227.56
2023-01-31T03:37:09.514Z,99227.47
2023-01-31T03:39:46.223Z,99219.38
2023-01-31T03:42:19.844Z,99240.28
2023-01-31T03:45:01.933Z,99235.84
2023-01-31T03:47:50.108Z,99231.53
2023-01-31T03:50:40.021Z,99230.72
2023-01-31T03:53:25.575Z,99231.59
2023-01-31T03:55:57.391Z,99231.03
2023-01-31T03:58:29.348Z,99224.28
2023-01-31T04:00:59.727Z,99222.78
2023-01-31T04:04:08.135Z,99235.88
2023-01-31T04:06:35.184Z,99227.16
2023-01-31T04:09:02.476Z,99235.88
2023-01-31T04:11:29.996Z,99234.41
2023-01-31T04:13:57.014Z,99229.16
2023-01-31T04:16:24.054Z,99229.34
2023-01-31T04:18:51.943Z,99224.41
2023-01-31T04:21:18.922Z,99225.63
2023-01-31T04:23:45.782Z,99222.44
2023-01-31T04:26:12.912Z,99222.66
2023-01-31T04:28:40.614Z,99227.09
2023-01-31T04:31:07.787Z,99211.13
2023-01-31T04:33:34.893Z,99212.91
2023-01-31T04:36:01.959Z,99209.56
2023-01-31T04:38:28.836Z,99220.69
2023-01-31T04:40:55.737Z,99227.53
2023-01-31T04:43:22.633Z,99242.06
2023-01-31T04:45:50.206Z,99228.84
2023-01-31T04:48:17.064Z,99230.63
2023-01-31T04:50:44.085Z,99232.31
2023-01-31T04:53:11.204Z,99246.06
2023-01-31T04:55:38.131Z,99210.53
2023-01-31T04:58:06.750Z,99226.75
2023-01-31T05:00:34.696Z,99206.97
2023-01-31T05:03:02.399Z,99235.50
2023-01-31T05:05:29.323Z,99231.38
2023-01-31T05:07:56.123Z,99241.69
2023-01-31T05:10:23.124Z,99252.03
2023-01-31T05:12:50.042Z,99258.75
2023-01-31T05:15:17.614Z,99254.91
2023-01-31T05:17:45.244Z,99277.69
2023-01-31T05:20:12.481Z,99269.22
2023-01-31T05:22:39.656Z,99246.31
2023-01-31T05:25:07.038Z,99240.28
2023-01-31T05:27:33.956Z,99248.78
2023-01-31T05:30:00.963Z,99248.91
2023-01-31T05:32:28.036Z,99251.63
2023-01-31T05:34:54.877Z,99248.66
2023-01-31T05:37:21.757Z,99254.66
2023-01-31T05:39:48.745Z,99259.84
2023-01-31T05:42:15.727Z,99256.78
2023-01-31T05:44:42.771Z,99255.97
2023-01-31T05:47:09.834Z,99263.88
2023-01-31T05:49:36.911Z,99258.34
2023-01-31T05:52:03.807Z,99264.75
2023-01-31T05:54:34.755Z,99262.25
2023-01-31T05:57:01.765Z,99275.00
2023-01-31T05:59:31.061Z,99266.34
2023-01-31T06:01:58.068Z,99264.34
2023-01-31T06:04:25.980Z,99267.84
2023-01-31T06:06:52.818Z,99271.97
2023-01-31T06:09:19.827Z,99270.41
2023-01-31T06:11:46.980Z,99262.28
2023-01-31T06:14:13.816Z,99268.13
2023-01-31T06:16:40.804Z,99266.81
2023-01-31T06:19:07.699Z,99266.03
2023-01-31T06:21:34.634Z,99267.13
2023-01-31T06:24:01.561Z,99278.00
2023-01-31T06:26:28.529Z,99274.31
2023-01-31T06:28:55.834Z,99288.13
2023-01-31T06:31:23.417Z,99277.09
2023-01-31T06:33:51.708Z,99279.91
2023-01-31T06:36:19.609Z,99275.00
2023-01-31T06:38:54.606Z,99294.97
2023-01-31T06:41:22.110Z,99295.66
2023-01-31T06:43:49.472Z,99297.03
2023-01-31T06:46:16.509Z,99301.34
2023-01-31T06:48:44.084Z,99295.59
2023-01-31T06:51:11.034Z,99307.00
2023-01-31T06:53:40.827Z,99295.81
2023-01-31T06:56:09.914Z,99299.22
2023-01-31T06:58:37.377Z,99290.34
2023-01-31T07:01:09.678Z,99289.47
2023-01-31T07:03:36.791Z,99293.56
2023-01-31T07:06:05.064Z,99306.00
2023-01-31T07:08:35.294Z,99304.38
2023-01-31T07:11:03.675Z,99310.88
2023-01-31T07:13:31.368Z,99317.31
2023-01-31T07:15:58.406Z,99320.81
2023-01-31T07:18:25.394Z,99322.44
2023-01-31T07:20:52.664Z,99323.38
2023-01-31T07:23:19.923Z,99328.63
2023-01-31T07:25:46.811Z,99332.47
2023-01-31T07:28:14.143Z,99332.22
2023-01-31T07:30:43.995Z,99327.66
2023-01-31T07:33:11.543Z,99351.06
2023-01-31T07:35:38.463Z,99344.09
2023-01-31T07:38:05.498Z,99348.63
2023-01-31T07:40:32.320Z,99341.84
2023-01-31T07:43:00.192Z,99348.63
2023-01-31T07:45:27.654Z,99336.84
2023-01-31T07:47:58.172Z,99345.66
2023-01-31T07:50:27.390Z,99341.06
2023-01-31T07:52:55.016Z,99342.06
2023-01-31T07:55:22.510Z,99341.44
2023-01-31T07:57:50.548Z,99343.00
2023-01-31T08:00:36.274Z,99354.00
2023-01-31T08:03:22.642Z,99343.44
2023-01-31T08:05:50.677Z,99345.13
2023-01-31T08:08:17.583Z,99349.47
2023-01-31T08:10:47.490Z,99355.25
2023-01-31T08:13:14.394Z,99354.72
2023-01-31T08:15:41.256Z,99359.63
2023-01-31T08:18:08.096Z,99352.66
2023-01-31T08:20:37.903Z,99359.88
2023-01-31T08:23:04.883Z,99364.53
2023-01-31T08:25:32.188Z,99353.25
2023-01-31T08:28:00.510Z,99358.97
2023-01-31T08:30:28.326Z,99354.44
2023-01-31T08:32:57.069Z,99358.69
2023-01-31T08:35:29.200Z,99368.41
2023-01-31T08:38:07.106Z,99368.19
2023-01-31T08:40:44.103Z,99372.63
2023-01-31T08:43:11.019Z,99373.72
2023-01-31T08:45:38.247Z,99374.06
2023-01-31T08:48:07.087Z,99363.34
2023-01-31T08:50:34.422Z,99367.63
2023-01-31T08:53:04.344Z,99383.19
2023-01-31T08:55:32.654Z,99381.59
2023-01-31T08:58:00.544Z,99382.94
2023-01-31T09:00:28.082Z,99395.69
2023-01-31T09:02:57.138Z,99397.25
2023-01-31T09:05:26.613Z,99395.25
2023-01-31T09:07:53.851Z,99388.38
2023-01-31T09:10:21.833Z,99394.63
2023-01-31T09:12:48.947Z,99401.22
2023-01-31T09:15:15.944Z,99393.44
2023-01-31T09:17:43.836Z,99401.69
2023-01-31T09:20:11.480Z,99411.06
2023-01-31T09:22:38.591Z,99401.06
2023-01-31T09:25:06.304Z,99401.03
2023-01-31T09:27:33.389Z,99406.72
2023-01-31T09:30:01.992Z,99412.44
2023-01-31T09:32:30.793Z,99418.06
2023-01-31T09:34:57.924Z,99410.66
2023-01-31T09:37:24.855Z,99414.41
2023-01-31T09:39:51.869Z,99413.66
2023-01-31T09:42:48.634Z,99418.03
2023-01-31T09:45:24.197Z,99414.69
2023-01-31T09:47:54.659Z,99421.66
2023-01-31T09:50:48.899Z,99421.59
2023-01-31T09:53:24.048Z,99417.28
2023-01-31T09:56:18.664Z,99421.84
2023-01-31T09:58:45.502Z,99420.84
2023-01-31T10:01:25.892Z,99413.81
2023-01-31T10:03:56.004Z,99413.16
2023-01-31T10:06:40.579Z,99414.97
2023-01-31T10:09:28.120Z,99418.38
2023-01-31T10:12:25.888Z,99424.56
2023-01-31T10:14:54.060Z,99425.28
2023-01-31T10:17:30.368Z,99418.59
2023-01-31T10:20:18.217Z,99425.03
2023-01-31T10:23:12.233Z,99422.75
2023-01-31T10:26:14.466Z,99417.34
2023-01-31T10:29:20.212Z,99418.88
2023-01-31T10:32:02.228Z,99409.69
2023-01-31T10:34:45.703Z,99408.13
2023-01-31T10:37:24.413Z,99410.59
2023-01-31T10:40:05.103Z,99408.56
2023-01-31T10:42:38.722Z,99399.09
2023-01-31T10:45:08.861Z,99399.00
2023-01-31T10:47:50.490Z,99383.72
2023-01-31T10:50:34.646Z,99392.91
2023-01-31T10:53:07.691Z,99399.91
2023-01-31T10:55:49.687Z,99397.69
2023-01-31T10:58:22.446Z,99394.19
2023-01-31T11:00:50.481Z,99408.97
2023-01-31T11:03:18.301Z,99404.63
2023-01-31T11:05:54.050Z,99400.97
2023-01-31T11:08:46.656Z,99394.31
2023-01-31T11:11:18.515Z,99393.25
2023-01-31T11:14:06.184Z,99381.81
2023-01-31T11:16:38.916Z,99384.28
2023-01-31T11:19:21.752Z,99384.66
2023-01-31T11:21:53.581Z,99383.38
2023-01-31T11:24:28.282Z,99387.22
2023-01-31T11:27:37.390Z,99378.94
2023-01-31T11:30:06.478Z,99377.94
2023-01-31T11:32:37.070Z,99378.25
2023-01-31T11:35:06.996Z,99371.75
2023-01-31T11:37:35.066Z,99367.75
2023-01-31T11:40:20.041Z,99366.84
2023-01-31T11:42:55.660Z,99359.78
2023-01-31T11:45:27.927Z,99372.09
2023-01-31T11:48:26.149Z,99374.97
2023-01-31T11:50:53.393Z,99370.06
2023-01-31T11:53:26.891Z,99374.59
2023-01-31T11:55:57.729Z,99376.97
2023-01-31T11:58:34.869Z,99369.06
2023-01-31T12:01:07.259Z,99371.00
2023-01-31T12:03:35.127Z,99372.19
2023-01-31T12:06:05.320Z,99369.78
2023-01-31T12:08:36.022Z,99361.44
2023-01-31T12:11:27.652Z,99380.44
2023-01-31T12:14:02.849Z,99374.38
2023-01-31T12:16:31.488Z,99365.88
2023-01-31T12:19:10.334Z,99368.41
2023-01-31T12:21:58.724Z,99374.56
2023-01-31T12:24:32.834Z,99363.47
2023-01-31T12:27:36.826Z,99368.31
2023-01-31T12:30:51.946Z,99360.06
2023-01-31T12:33:59.667Z,99367.56
2023-01-31T12:36:52.747Z,99361.56
2023-01-31T12:39:19.933Z,99353.47
2023-01-31T12:41:55.744Z,99358.84
2023-01-31T12:44:31.285Z,99369.34
2023-01-31T12:47:10.473Z,99371.78
2023-01-31T12:50:12.049Z,99363.44
2023-01-31T12:53:10.646Z,99368.38
2023-01-31T12:55:47.909Z,99378.94
2023-01-31T12:58:23.855Z,99376.47
2023-01-31T13:00:56.782Z,99375.91
2023-01-31T13:03:39.327Z,99376.84
2023-01-31T13:06:15.352Z,99381.22
2023-01-31T13:09:13.467Z,99400.00
2023-01-31T13:12:02.053Z,99397.69
2023-01-31T13:14:33.876Z,99392.97
2023-01-31T13:17:06.813Z,99390.56
2023-01-31T13:19:41.406Z,99402.06
2023-01-31T13:22:22.334Z,99404.06
2023-01-31T13:25:00.173Z,99417.25
2023-01-31T13:27:33.678Z,99421.63
2023-01-31T13:30:12.307Z,99417.44
2023-01-31T13:32:49.181Z,99422.81
2023-01-31T13:35:24.923Z,99416.09
2023-01-31T13:37:59.344Z,99421.91
2023-01-31T13:40:30.216Z,99432.47
2023-01-31T13:43:03.269Z,99429.97
2023-01-31T13:45:44.384Z,99425.00
2023-01-31T13:48:34.094Z,99422.13
2023-01-31T13:51:08.714Z,99420.97
2023-01-31T13:53:43.865Z,99426.25
2023-01-31T13:56:18.415Z,99431.72
2023-01-31T13:58:50.397Z,99430.50
2023-01-31T14:01:22.187Z,99425.13
2023-01-31T14:04:24.467Z,99418.38
2023-01-31T14:06:56.946Z,99418.69
2023-01-31T14:09:39.503Z,99422.34
2023-01-31T14:12:12.151Z,99421.50
2023-01-31T14:14:42.584Z,99421.69
2023-01-31T14:17:34.441Z,99416.53
2023-01-31T14:20:25.669Z,99418.91
2023-01-31T14:23:30.793Z,99418.00
2023-01-31T14:25:58.283Z,99416.56
2023-01-31T14:28:26.717Z,99435.94
2023-01-31T14:30:55.630Z,99427.16
2023-01-31T14:33:25.926Z,99452.00
2023-01-31T14:36:22.932Z,99458.69
2023-01-31T14:39:18.471Z,99475.19
2023-01-31T14:42:10.319Z,99473.19
2023-01-31T14:45:23.895Z,99476.88
2023-01-31T14:48:13.843Z,99470.41
2023-01-31T14:51:11.689Z,99469.69
2023-01-31T14:53:44.612Z,99481.19
2023-01-31T14:56:19.973Z,99477.59
2023-01-31T14:58:48.471Z,99481.84
2023-01-31T15:01:20.777Z,99485.28
2023-01-31T15:03:55.922Z,99488.16
2023-01-31T15:06:33.938Z,99481.44
2023-01-31T15:09:19.711Z,99475.94
2023-01-31T15:11:49.000Z,99477.88
2023-01-31T15:14:38.316Z,99482.91
2023-01-31T15:17:34.081Z,99491.28
2023-01-31T15:20:17.158Z,99495.81
2023-01-31T15:22:45.609Z,99504.34
2023-01-31T15:25:26.776Z,99504.31
2023-01-31T15:27:57.059Z,99505.06
2023-01-31T15:30:25.940Z,99506.06
2023-01-31T15:33:00.877Z,99512.16
2023-01-31T15:35:34.382Z,99510.94
2023-01-31T15:38:07.155Z,99510.56
2023-01-31T15:40:34.035Z,99514.47
2023-01-31T15:43:23.618Z,99520.09
2023-01-31T15:45:53.903Z,99518.09
2023-01-31T15:48:22.309Z,99526.06
2023-01-31T15:50:59.655Z,99526.66
2023-01-31T15:53:30.891Z,99525.63
2023-01-31T15:56:02.891Z,99536.47
2023-01-31T15:58:31.157Z,99527.69
2023-01-31T16:01:01.895Z,99533.19
2023-01-31T16:03:37.303Z,99546.59
2023-01-31T16:06:04.669Z,99545.78
2023-01-31T16:08:37.020Z,99547.44
2023-01-31T16:11:07.591Z,99550.81
2023-01-31T16:13:37.973Z,99545.09
2023-01-31T16:16:07.631Z,99553.53
2023-01-31T16:18:37.419Z,99547.59
2023-01-31T16:21:37.985Z,99540.66
2023-01-31T16:24:22.165Z,99551.03
2023-01-31T16:27:09.494Z,99554.63
2023-01-31T16:29:42.894Z,99551.53
2023-01-31T16:32:29.845Z,99569.44
2023-01-31T16:34:58.715Z,99573.50
2023-01-31T16:37:33.504Z,99581.06
2023-01-31T16:40:20.409Z,99579.06
2023-01-31T16:42:47.842Z,99585.81
2023-01-31T16:45:31.429Z,99596.75
2023-01-31T16:48:21.764Z,99587.44
2023-01-31T16:50:50.404Z,99587.25
2023-01-31T16:53:35.196Z,99602.38
2023-01-31T16:56:14.451Z,99590.53
2023-01-31T16:58:54.056Z,99600.78
2023-01-31T17:01:30.845Z,99603.69
2023-01-31T17:04:18.178Z,99610.28
2023-01-31T17:06:51.252Z,99624.13
2023-01-31T17:09:21.634Z,99609.69
2023-01-31T17:11:48.648Z,99625.34
2023-01-31T17:14:15.508Z,99626.72
2023-01-31T17:16:42.395Z,99607.38
2023-01-31T17:19:09.243Z,99599.56
2023-01-31T17:21:41.175Z,99595.97
2023-01-31T17:24:18.270Z,99595.25
2023-01-31T17:26:45.868Z,99596.31
2023-01-31T17:29:12.990Z,99603.66
2023-01-31T17:31:42.326Z,99593.06
2023-01-31T17:34:16.560Z,99594.50
2023-01-31T17:36:44.707Z,99589.78
2023-01-31T17:39:13.740Z,99593.78
2023-01-31T17:41:41.588Z,99587.88
2023-01-31T17:44:13.055Z,99592.84
2023-01-31T17:46:39.918Z,99598.44
2023-01-31T17:49:06.835Z,99601.50
2023-01-31T17:51:33.723Z,99591.63
2023-01-31T17:54:00.988Z,99597.47
2023-01-31T17:56:28.117Z,99603.13
2023-01-31T17:58:54.921Z,99608.56
2023-01-31T18:01:21.863Z,99611.13
2023-01-31T18:03:49.280Z,99610.47
2023-01-31T18:06:16.541Z,99615.72
2023-01-31T18:08:43.366Z,99618.25
2023-01-31T18:11:17.521Z,99614.88
2023-01-31T18:13:45.016Z,99612.22
2023-01-31T18:16:18.275Z,99613.25
2023-01-31T18:18:45.342Z,99615.06
2023-01-31T18:21:18.232Z,99615.44
2023-01-31T18:23:56.941Z,99601.50
2023-01-31T18:26:24.826Z,99607.91
2023-01-31T18:28:52.019Z,99621.66
2023-01-31T18:31:19.090Z,99621.81
2023-01-31T18:33:47.607Z,99624.38
2023-01-31T18:36:19.468Z,99632.13
2023-01-31T18:38:48.152Z,99632.56
2023-01-31T18:41:17.040Z,99636.31
2023-01-31T18:43:44.262Z,99642.63
2023-01-31T18:46:12.617Z,99641.53
2023-01-31T18:48:40.736Z,99639.97
2023-01-31T18:51:10.401Z,99642.69
2023-01-31T18:53:40.297Z,99641.53
2023-01-31T18:56:10.595Z,99646.06
2023-01-31T18:58:39.374Z,99647.38
2023-01-31T19:01:11.884Z,99651.91
2023-01-31T19:03:40.120Z,99645.31
2023-01-31T19:06:10.530Z,99652.25
2023-01-31T19:08:38.100Z,99645.47
2023-01-31T19:11:08.790Z,99642.00
2023-01-31T19:13:38.611Z,99645.69
2023-01-31T19:16:11.691Z,99653.44
2023-01-31T19:18:39.426Z,99661.13
2023-01-31T19:21:25.989Z,99647.78
2023-01-31T19:23:57.185Z,99653.47
2023-01-31T19:26:24.894Z,99669.91
2023-01-31T19:28:52.376Z,99663.06
2023-01-31T19:31:24.834Z,99670.38
2023-01-31T19:33:57.029Z,99665.84
2023-01-31T19:36:30.591Z,99667.38
2023-01-31T19:38:59.460Z,99667.16
2023-01-31T19:41:27.548Z,99664.09
2023-01-31T19:43:59.527Z,99653.63
2023-01-31T19:46:30.502Z,99656.56
2023-01-31T19:48:58.874Z,99654.84
2023-01-31T19:51:26.442Z,99658.44
2023-01-31T19:54:01.475Z,99657.00
2023-01-31T19:56:29.623Z,99653.25
2023-01-31T19:59:02.481Z,99659.34
2023-01-31T20:01:29.681Z,99657.16
2023-01-31T20:03:56.793Z,99660.28
2023-01-31T20:06:25.919Z,99653.63
2023-01-31T20:08:57.988Z,99652.22
2023-01-31T20:11:27.009Z,99653.81
2023-01-31T20:13:55.475Z,99651.25
2023-01-31T20:16:27.114Z,99664.88
2023-01-31T20:18:56.280Z,99663.56
2023-01-31T20:21:23.868Z,99675.06
2023-01-31T20:23:50.936Z,99679.53
2023-01-31T20:26:19.795Z,99665.91
2023-01-31T20:28:46.768Z,99678.09
2023-01-31T20:31:15.881Z,99682.28
2023-01-31T20:33:43.432Z,99685.72
2023-01-31T20:36:15.855Z,99685.56
2023-01-31T20:38:42.696Z,99686.88
2023-01-31T20:41:10.384Z,99682.41
2023-01-31T20:43:37.810Z,99689.66
2023-01-31T20:46:11.057Z,99679.84
2023-01-31T20:48:39.028Z,99676.41
2023-01-31T20:51:06.836Z,99680.72
2023-01-31T20:53:34.282Z,99687.16
2023-01-31T20:56:05.497Z,99681.22
2023-01-31T20:58:35.362Z,99678.75
2023-01-31T21:01:05.503Z,99688.13
2023-01-31T21:03:33.499Z,99686.81
2023-01-31T21:06:01.377Z,99676.50
2023-01-31T21:08:29.196Z,99684.19
2023-01-31T21:10:58.401Z,99687.41
2023-01-31T21:13:30.273Z,99683.78
2023-01-31T21:15:59.045Z,99682.66
2023-01-31T21:18:27.956Z,99682.34
2023-01-31T21:20:55.209Z,99688.47
2023-01-31T21:23:22.310Z,99694.72
2023-01-31T21:25:49.261Z,99699.41
2023-01-31T21:28:16.548Z,99696.94
2023-01-31T21:30:43.578Z,99694.50
2023-01-31T21:33:10.473Z,99701.53
2023-01-31T21:35:37.698Z,99691.84
2023-01-31T21:38:04.511Z,99698.16
2023-01-31T21:40:31.382Z,99685.50
2023-01-31T21:42:58.237Z,99690.41
2023-01-31T21:45:40.289Z,99698.84
2023-01-31T21:48:30.560Z,99690.91
2023-01-31T21:50:58.080Z,99683.16
2023-01-31T21:53:26.364Z,99687.84
2023-01-31T21:56:07.463Z,99693.03
2023-01-31T21:58:36.040Z,99698.47
2023-01-31T22:01:15.984Z,99698.38
2023-01-31T22:03:43.066Z,99696.91
2023-01-31T22:06:13.942Z,99688.34
2023-01-31T22:08:43.273Z,99688.72
2023-01-31T22:11:13.045Z,99681.00
2023-01-31T22:13:43.920Z,99687.63
2023-01-31T22:16:12.355Z,99687.81
2023-01-31T22:18:40.488Z,99680.06
2023-01-31T22:21:23.720Z,99677.34
2023-01-31T22:23:53.902Z,99674.72
2023-01-31T22:26:24.189Z,99672.38
2023-01-31T22:28:52.503Z,99662.16
2023-01-31T22:31:20.086Z,99668.31
2023-01-31T22:33:47.231Z,99665.06
2023-01-31T22:36:15.774Z,99655.47
2023-01-31T22:38:43.225Z,99672.41
2023-01-31T22:41:12.817Z,99670.50
2023-01-31T22:43:45.407Z,99667.00
2023-01-31T22:46:18.686Z,99672.72
2023-01-31T22:48:47.279Z,99664.13
2023-01-31T22:51:16.459Z,99659.41
2023-01-31T22:53:43.326Z,99662.56
2023-01-31T22:56:41.373Z,99658.69
2023-01-31T22:59:09.732Z,99650.53
2023-01-31T23:01:38.559Z,99650.63
2023-01-31T23:04:07.939Z,99643.59
2023-01-31T23:06:37.793Z,99642.84
2023-01-31T23:09:05.130Z,99654.84
2023-01-31T23:11:31.986Z,99649.66
2023-01-31T23:13:59.211Z,99640.25
2023-01-31T23:16:45.114Z,99637.50
2023-01-31T23:19:14.516Z,99627.97
2023-01-31T23:21:44.814Z,99632.28
2023-01-31T23:24:14.794Z,99635.00
2023-01-31T23:26:42.183Z,99630.91
2023-01-31T23:29:09.006Z,99629.28
2023-01-31T23:31:36.429Z,99628.34
2023-01-31T23:34:06.176Z,99637.13
2023-01-31T23:36:33.135Z,99629.16
2023-01-31T23:38:59.997Z,99627.75
2023-01-31T23:41:26.970Z,99624.53
2023-01-31T23:43:53.848Z,99628.41
2023-01-31T23:46:20.773Z,99628.84
2023-01-31T23:48:47.689Z,99633.97
2023-01-31T23:51:14.783Z,99628.97
2023-01-31T23:53:41.571Z,99632.34
2023-01-31T23:56:27.119Z,99636.22
2023-01-31T23:58:54.166Z,99636.81
